Terminal Aerodrome Forecast
Issued by NWS

Home | Current Version | Previous Version | Text Only | Print | Product List | Glossary On
Versions: 1 2 3 4 5 6 7 8 9 10 11 12 13 14 15 16 17
000
FTUS43 KAPX 280142 AAA
TAFMBL
TAF AMD
KMBL 280142Z 2802/2824 36005KT P6SM OVC008
      TEMPO 2802/2804 SCT011 OVC030
     FM280400 02005KT P6SM BKN008
     FM281100 03006KT P6SM BKN010
     FM281400 03006KT P6SM SCT015
     FM281800 36008KT P6SM FEW200=

USA.gov is the U.S. government's official web portal to all federal, state and local government web resources and services.